Main page
METAR-TAF:

METAR-TAF

Airports :

Bandar Kangan, Iran

Jam Airport

latitude: 27-49-14N, longitude: 52-21-08E, elevation: 662 m

Current weather observation

The report was made 11 hours and 2 minutes ago, at 15:00 UTC
Wind 14 kt from the South/Southwest
Temperature 37°C
Humidity 25%
Pressure 1001 hPa
Visibility 10 km or more
no clouds below 1500 m and no cumulonimbus

METAR: OIBJ 281500Z 21014KT CAVOK 37/14 Q1001

Time: 06:32 (02:02 UTC)


TAF: missing

Weather observations and forecasts of more than 4000 airports (METAR and TAF reports).

The available stations are represented by yellow and red dots on the map.

Hover mouse over dot to see the name of the station.

Then click to see weather observations and forecasts.

To change the map : click on the green buttons with a black cross to zoom in, on the green button with a dash to zoom out, or on the green arrows for adjacent maps.


METAR-TAF: